sensor_id;sensor_type;location;lat;lon;timestamp;P1;durP1;ratioP1;P2;durP2;ratioP2
48040;SDS011;33815;48.386;11.738;2023-05-07T00:00:07;5.22;;;2.75;;
48040;SDS011;33815;48.386;11.738;2023-05-07T00:02:33;5.32;;;2.88;;
48040;SDS011;33815;48.386;11.738;2023-05-07T00:04:58;7.70;;;2.88;;
48040;SDS011;33815;48.386;11.738;2023-05-07T00:07:24;5.33;;;3.30;;
48040;SDS011;33815;48.386;11.738;2023-05-07T00:09:49;4.45;;;3.00;;
48040;SDS011;33815;48.386;11.738;2023-05-07T00:12:14;3.45;;;3.00;;
48040;SDS011;33815;48.386;11.738;2023-05-07T00:14:40;4.10;;;3.45;;
48040;SDS011;33815;48.386;11.738;2023-05-07T00:17:05;5.65;;;3.28;;
48040;SDS011;33815;48.386;11.738;2023-05-07T00:19:30;4.27;;;3.53;;
48040;SDS011;33815;48.386;11.738;2023-05-07T00:21:56;6.20;;;3.42;;
48040;SDS011;33815;48.386;11.738;2023-05-07T00:24:23;6.50;;;3.65;;
48040;SDS011;33815;48.386;11.738;2023-05-07T00:26:49;4.68;;;3.92;;
48040;SDS011;33815;48.386;11.738;2023-05-07T00:29:14;5.55;;;4.28;;
48040;SDS011;33815;48.386;11.738;2023-05-07T00:31:39;7.57;;;3.73;;
48040;SDS011;33815;48.386;11.738;2023-05-07T00:34:05;3.70;;;3.30;;
48040;SDS011;33815;48.386;11.738;2023-05-07T00:36:30;4.32;;;3.35;;
48040;SDS011;33815;48.386;11.738;2023-05-07T00:38:56;6.78;;;3.83;;
48040;SDS011;33815;48.386;11.738;2023-05-07T00:41:24;5.75;;;4.18;;
48040;SDS011;33815;48.386;11.738;2023-05-07T00:43:50;2.78;;;2.58;;
48040;SDS011;33815;48.386;11.738;2023-05-07T00:46:16;4.82;;;3.25;;
48040;SDS011;33815;48.386;11.738;2023-05-07T00:48:42;3.45;;;3.10;;
48040;SDS011;33815;48.386;11.738;2023-05-07T00:51:09;2.90;;;2.70;;
48040;SDS011;33815;48.386;11.738;2023-05-07T00:53:36;3.42;;;2.63;;
48040;SDS011;33815;48.386;11.738;2023-05-07T00:56:01;4.10;;;2.95;;
48040;SDS011;33815;48.386;11.738;2023-05-07T00:58:27;3.20;;;2.47;;
48040;SDS011;33815;48.386;11.738;2023-05-07T01:00:52;5.35;;;3.65;;
48040;SDS011;33815;48.386;11.738;2023-05-07T01:03:17;5.53;;;3.53;;
48040;SDS011;33815;48.386;11.738;2023-05-07T01:05:43;4.25;;;3.17;;
48040;SDS011;33815;48.386;11.738;2023-05-07T01:08:11;3.80;;;3.00;;
48040;SDS011;33815;48.386;11.738;2023-05-07T01:10:37;8.05;;;3.25;;
48040;SDS011;33815;48.386;11.738;2023-05-07T01:13:03;3.50;;;3.03;;
48040;SDS011;33815;48.386;11.738;2023-05-07T01:15:28;3.85;;;3.05;;
48040;SDS011;33815;48.386;11.738;2023-05-07T01:17:54;9.50;;;3.17;;
48040;SDS011;33815;48.386;11.738;2023-05-07T01:20:20;10.00;;;3.65;;
48040;SDS011;33815;48.386;11.738;2023-05-07T01:22:47;3.53;;;3.22;;
48040;SDS011;33815;48.386;11.738;2023-05-07T01:25:14;5.80;;;3.65;;
48040;SDS011;33815;48.386;11.738;2023-05-07T01:27:41;7.32;;;3.78;;
48040;SDS011;33815;48.386;11.738;2023-05-07T01:30:06;3.97;;;2.67;;
48040;SDS011;33815;48.386;11.738;2023-05-07T01:32:33;4.32;;;3.15;;
48040;SDS011;33815;48.386;11.738;2023-05-07T01:35:03;4.68;;;2.80;;
48040;SDS011;33815;48.386;11.738;2023-05-07T01:37:32;4.88;;;2.47;;
48040;SDS011;33815;48.386;11.738;2023-05-07T01:39:58;3.15;;;2.85;;
48040;SDS011;33815;48.386;11.738;2023-05-07T01:42:24;4.72;;;3.55;;
48040;SDS011;33815;48.386;11.738;2023-05-07T01:44:49;5.88;;;3.83;;
48040;SDS011;33815;48.386;11.738;2023-05-07T01:47:14;3.53;;;3.22;;
48040;SDS011;33815;48.386;11.738;2023-05-07T01:49:41;3.65;;;3.10;;
48040;SDS011;33815;48.386;11.738;2023-05-07T01:52:07;7.28;;;3.67;;
48040;SDS011;33815;48.386;11.738;2023-05-07T01:54:32;3.25;;;2.95;;
48040;SDS011;33815;48.386;11.738;2023-05-07T01:56:58;5.05;;;3.17;;
48040;SDS011;33815;48.386;11.738;2023-05-07T01:59:23;4.33;;;3.53;;
48040;SDS011;33815;48.386;11.738;2023-05-07T02:01:48;4.93;;;3.28;;
48040;SDS011;33815;48.386;11.738;2023-05-07T02:04:13;5.43;;;3.47;;
48040;SDS011;33815;48.386;11.738;2023-05-07T02:06:39;3.45;;;3.00;;
48040;SDS011;33815;48.386;11.738;2023-05-07T02:09:04;8.82;;;3.92;;
48040;SDS011;33815;48.386;11.738;2023-05-07T02:11:30;3.88;;;3.47;;
48040;SDS011;33815;48.386;11.738;2023-05-07T02:13:55;3.83;;;3.35;;
48040;SDS011;33815;48.386;11.738;2023-05-07T02:16:20;5.60;;;3.37;;
48040;SDS011;33815;48.386;11.738;2023-05-07T02:18:47;7.00;;;3.70;;
48040;SDS011;33815;48.386;11.738;2023-05-07T02:21:12;6.73;;;3.20;;
48040;SDS011;33815;48.386;11.738;2023-05-07T02:23:37;6.10;;;3.67;;
48040;SDS011;33815;48.386;11.738;2023-05-07T02:26:03;4.33;;;3.57;;
48040;SDS011;33815;48.386;11.738;2023-05-07T02:28:28;4.25;;;3.78;;
48040;SDS011;33815;48.386;11.738;2023-05-07T02:30:54;4.53;;;3.75;;
48040;SDS011;33815;48.386;11.738;2023-05-07T02:33:19;4.75;;;4.10;;
48040;SDS011;33815;48.386;11.738;2023-05-07T02:35:44;4.97;;;3.85;;
48040;SDS011;33815;48.386;11.738;2023-05-07T02:38:10;3.67;;;3.38;;
48040;SDS011;33815;48.386;11.738;2023-05-07T02:40:36;5.68;;;4.22;;
48040;SDS011;33815;48.386;11.738;2023-05-07T02:43:04;4.82;;;3.40;;
48040;SDS011;33815;48.386;11.738;2023-05-07T02:45:30;7.50;;;3.70;;
48040;SDS011;33815;48.386;11.738;2023-05-07T02:47:55;10.40;;;4.00;;
48040;SDS011;33815;48.386;11.738;2023-05-07T02:50:20;7.43;;;3.87;;
48040;SDS011;33815;48.386;11.738;2023-05-07T02:52:46;5.20;;;4.07;;
48040;SDS011;33815;48.386;11.738;2023-05-07T02:55:12;5.55;;;4.07;;
48040;SDS011;33815;48.386;11.738;2023-05-07T02:57:37;3.85;;;3.50;;
48040;SDS011;33815;48.386;11.738;2023-05-07T03:00:16;7.27;;;4.43;;
48040;SDS011;33815;48.386;11.738;2023-05-07T03:02:43;5.40;;;4.38;;
48040;SDS011;33815;48.386;11.738;2023-05-07T03:05:09;5.07;;;4.50;;
48040;SDS011;33815;48.386;11.738;2023-05-07T03:07:35;5.75;;;4.53;;
48040;SDS011;33815;48.386;11.738;2023-05-07T03:10:00;7.07;;;4.07;;
48040;SDS011;33815;48.386;11.738;2023-05-07T03:12:26;5.68;;;4.63;;
48040;SDS011;33815;48.386;11.738;2023-05-07T03:14:51;5.07;;;4.20;;
48040;SDS011;33815;48.386;11.738;2023-05-07T03:17:16;7.82;;;4.43;;
48040;SDS011;33815;48.386;11.738;2023-05-07T03:19:41;6.78;;;4.57;;
48040;SDS011;33815;48.386;11.738;2023-05-07T03:22:07;7.40;;;4.60;;
48040;SDS011;33815;48.386;11.738;2023-05-07T03:24:32;5.55;;;4.72;;
48040;SDS011;33815;48.386;11.738;2023-05-07T03:26:57;5.40;;;4.43;;
48040;SDS011;33815;48.386;11.738;2023-05-07T03:29:23;6.32;;;4.68;;
48040;SDS011;33815;48.386;11.738;2023-05-07T03:31:48;6.10;;;4.82;;
48040;SDS011;33815;48.386;11.738;2023-05-07T03:34:13;5.07;;;4.40;;
48040;SDS011;33815;48.386;11.738;2023-05-07T03:36:39;4.63;;;3.97;;
48040;SDS011;33815;48.386;11.738;2023-05-07T03:39:04;9.32;;;5.25;;
48040;SDS011;33815;48.386;11.738;2023-05-07T03:41:30;8.35;;;4.95;;
48040;SDS011;33815;48.386;11.738;2023-05-07T03:43:55;4.82;;;4.00;;
48040;SDS011;33815;48.386;11.738;2023-05-07T03:46:20;6.05;;;5.22;;
48040;SDS011;33815;48.386;11.738;2023-05-07T03:48:45;13.07;;;4.40;;
48040;SDS011;33815;48.386;11.738;2023-05-07T03:51:11;5.22;;;4.72;;
48040;SDS011;33815;48.386;11.738;2023-05-07T03:53:36;10.93;;;4.97;;
48040;SDS011;33815;48.386;11.738;2023-05-07T03:56:01;5.63;;;4.70;;
48040;SDS011;33815;48.386;11.738;2023-05-07T03:58:27;4.70;;;4.20;;
48040;SDS011;33815;48.386;11.738;2023-05-07T04:00:52;4.88;;;4.47;;
48040;SDS011;33815;48.386;11.738;2023-05-07T04:03:17;8.60;;;5.17;;
48040;SDS011;33815;48.386;11.738;2023-05-07T04:05:42;6.40;;;5.38;;
48040;SDS011;33815;48.386;11.738;2023-05-07T04:08:08;4.97;;;4.47;;
48040;SDS011;33815;48.386;11.738;2023-05-07T04:10:33;6.13;;;5.30;;
48040;SDS011;33815;48.386;11.738;2023-05-07T04:12:58;6.70;;;4.90;;
48040;SDS011;33815;48.386;11.738;2023-05-07T04:15:23;5.57;;;4.87;;
48040;SDS011;33815;48.386;11.738;2023-05-07T04:17:49;6.90;;;5.05;;
48040;SDS011;33815;48.386;11.738;2023-05-07T04:20:15;6.03;;;5.22;;
48040;SDS011;33815;48.386;11.738;2023-05-07T04:22:41;6.85;;;5.15;;
48040;SDS011;33815;48.386;11.738;2023-05-07T04:25:07;5.95;;;5.43;;
48040;SDS011;33815;48.386;11.738;2023-05-07T04:27:34;8.18;;;5.75;;
48040;SDS011;33815;48.386;11.738;2023-05-07T04:29:59;7.03;;;5.05;;
48040;SDS011;33815;48.386;11.738;2023-05-07T04:32:25;6.35;;;5.65;;
48040;SDS011;33815;48.386;11.738;2023-05-07T04:34:50;6.60;;;5.35;;
48040;SDS011;33815;48.386;11.738;2023-05-07T04:37:16;7.07;;;6.03;;
48040;SDS011;33815;48.386;11.738;2023-05-07T04:39:41;6.05;;;5.30;;
48040;SDS011;33815;48.386;11.738;2023-05-07T04:42:07;6.70;;;5.50;;
48040;SDS011;33815;48.386;11.738;2023-05-07T04:44:34;7.57;;;6.03;;
48040;SDS011;33815;48.386;11.738;2023-05-07T04:46:59;6.63;;;5.60;;
48040;SDS011;33815;48.386;11.738;2023-05-07T04:49:25;6.97;;;5.63;;
48040;SDS011;33815;48.386;11.738;2023-05-07T04:51:50;6.43;;;5.65;;
48040;SDS011;33815;48.386;11.738;2023-05-07T04:54:16;6.78;;;5.60;;
48040;SDS011;33815;48.386;11.738;2023-05-07T04:56:41;8.33;;;7.27;;
48040;SDS011;33815;48.386;11.738;2023-05-07T04:59:06;7.43;;;5.30;;
48040;SDS011;33815;48.386;11.738;2023-05-07T05:01:31;8.35;;;5.60;;
48040;SDS011;33815;48.386;11.738;2023-05-07T05:03:57;7.75;;;5.82;;
48040;SDS011;33815;48.386;11.738;2023-05-07T05:06:22;7.40;;;5.95;;
48040;SDS011;33815;48.386;11.738;2023-05-07T05:08:47;6.65;;;5.53;;
48040;SDS011;33815;48.386;11.738;2023-05-07T05:11:13;6.53;;;5.50;;
48040;SDS011;33815;48.386;11.738;2023-05-07T05:13:38;6.47;;;5.75;;
48040;SDS011;33815;48.386;11.738;2023-05-07T05:16:03;5.53;;;5.03;;
48040;SDS011;33815;48.386;11.738;2023-05-07T05:18:29;10.63;;;5.63;;
48040;SDS011;33815;48.386;11.738;2023-05-07T05:20:54;7.00;;;6.03;;
48040;SDS011;33815;48.386;11.738;2023-05-07T05:23:19;9.90;;;7.30;;
48040;SDS011;33815;48.386;11.738;2023-05-07T05:25:45;8.30;;;6.20;;
48040;SDS011;33815;48.386;11.738;2023-05-07T05:28:10;7.68;;;6.22;;
48040;SDS011;33815;48.386;11.738;2023-05-07T05:30:35;10.03;;;7.17;;
48040;SDS011;33815;48.386;11.738;2023-05-07T05:33:01;9.23;;;8.15;;
48040;SDS011;33815;48.386;11.738;2023-05-07T05:35:26;8.53;;;6.80;;
48040;SDS011;33815;48.386;11.738;2023-05-07T05:37:51;8.23;;;6.93;;
48040;SDS011;33815;48.386;11.738;2023-05-07T05:40:16;9.82;;;7.53;;
48040;SDS011;33815;48.386;11.738;2023-05-07T05:42:42;10.00;;;7.13;;
48040;SDS011;33815;48.386;11.738;2023-05-07T05:45:07;11.30;;;7.57;;
48040;SDS011;33815;48.386;11.738;2023-05-07T05:47:33;11.30;;;7.38;;
48040;SDS011;33815;48.386;11.738;2023-05-07T05:49:58;7.72;;;6.38;;
48040;SDS011;33815;48.386;11.738;2023-05-07T05:52:24;9.27;;;6.13;;
48040;SDS011;33815;48.386;11.738;2023-05-07T05:54:49;7.60;;;5.85;;
48040;SDS011;33815;48.386;11.738;2023-05-07T05:57:15;7.18;;;6.22;;
48040;SDS011;33815;48.386;11.738;2023-05-07T05:59:40;6.93;;;6.22;;
48040;SDS011;33815;48.386;11.738;2023-05-07T06:02:06;6.75;;;5.75;;
48040;SDS011;33815;48.386;11.738;2023-05-07T06:04:31;8.27;;;5.93;;
48040;SDS011;33815;48.386;11.738;2023-05-07T06:06:56;7.80;;;5.90;;
48040;SDS011;33815;48.386;11.738;2023-05-07T06:09:22;7.07;;;5.37;;
48040;SDS011;33815;48.386;11.738;2023-05-07T06:11:47;6.00;;;5.40;;
48040;SDS011;33815;48.386;11.738;2023-05-07T06:14:12;7.00;;;5.67;;
48040;SDS011;33815;48.386;11.738;2023-05-07T06:16:37;6.47;;;5.57;;
48040;SDS011;33815;48.386;11.738;2023-05-07T06:19:03;6.15;;;5.55;;
48040;SDS011;33815;48.386;11.738;2023-05-07T06:21:28;7.97;;;5.93;;
48040;SDS011;33815;48.386;11.738;2023-05-07T06:23:53;7.43;;;5.72;;
48040;SDS011;33815;48.386;11.738;2023-05-07T06:26:19;6.85;;;5.32;;
48040;SDS011;33815;48.386;11.738;2023-05-07T06:28:45;6.82;;;6.15;;
48040;SDS011;33815;48.386;11.738;2023-05-07T06:31:17;7.82;;;7.03;;
48040;SDS011;33815;48.386;11.738;2023-05-07T06:33:45;7.85;;;6.63;;
48040;SDS011;33815;48.386;11.738;2023-05-07T06:36:11;9.50;;;7.78;;
48040;SDS011;33815;48.386;11.738;2023-05-07T06:38:36;11.13;;;7.50;;
48040;SDS011;33815;48.386;11.738;2023-05-07T06:41:01;11.23;;;7.40;;
48040;SDS011;33815;48.386;11.738;2023-05-07T06:43:26;9.52;;;7.88;;
48040;SDS011;33815;48.386;11.738;2023-05-07T06:45:52;8.60;;;7.55;;
48040;SDS011;33815;48.386;11.738;2023-05-07T06:48:17;12.77;;;7.60;;
48040;SDS011;33815;48.386;11.738;2023-05-07T06:50:42;10.03;;;7.57;;
48040;SDS011;33815;48.386;11.738;2023-05-07T06:53:07;12.23;;;7.27;;
48040;SDS011;33815;48.386;11.738;2023-05-07T06:55:33;14.73;;;8.10;;
48040;SDS011;33815;48.386;11.738;2023-05-07T06:57:58;11.57;;;7.63;;
48040;SDS011;33815;48.386;11.738;2023-05-07T07:00:25;8.38;;;7.40;;
48040;SDS011;33815;48.386;11.738;2023-05-07T07:02:51;10.40;;;7.97;;
48040;SDS011;33815;48.386;11.738;2023-05-07T07:05:16;8.87;;;7.27;;
48040;SDS011;33815;48.386;11.738;2023-05-07T07:07:42;10.95;;;8.70;;
48040;SDS011;33815;48.386;11.738;2023-05-07T07:10:07;9.87;;;7.87;;
48040;SDS011;33815;48.386;11.738;2023-05-07T07:12:33;11.45;;;8.23;;
48040;SDS011;33815;48.386;11.738;2023-05-07T07:14:58;9.50;;;7.65;;
48040;SDS011;33815;48.386;11.738;2023-05-07T07:17:23;11.63;;;8.70;;
48040;SDS011;33815;48.386;11.738;2023-05-07T07:19:48;11.63;;;8.20;;
48040;SDS011;33815;48.386;11.738;2023-05-07T07:22:14;9.10;;;7.77;;
48040;SDS011;33815;48.386;11.738;2023-05-07T07:24:39;9.63;;;8.60;;
48040;SDS011;33815;48.386;11.738;2023-05-07T07:27:04;9.65;;;7.82;;
48040;SDS011;33815;48.386;11.738;2023-05-07T07:29:30;9.10;;;7.17;;
48040;SDS011;33815;48.386;11.738;2023-05-07T07:31:55;7.38;;;6.65;;
48040;SDS011;33815;48.386;11.738;2023-05-07T07:34:21;8.35;;;7.00;;
48040;SDS011;33815;48.386;11.738;2023-05-07T07:36:46;9.50;;;7.90;;
48040;SDS011;33815;48.386;11.738;2023-05-07T07:39:12;8.77;;;6.80;;
48040;SDS011;33815;48.386;11.738;2023-05-07T07:41:37;8.52;;;6.85;;
48040;SDS011;33815;48.386;11.738;2023-05-07T07:44:03;7.07;;;6.23;;
48040;SDS011;33815;48.386;11.738;2023-05-07T07:46:28;10.60;;;6.95;;
48040;SDS011;33815;48.386;11.738;2023-05-07T07:48:54;9.45;;;7.05;;
48040;SDS011;33815;48.386;11.738;2023-05-07T07:51:19;7.35;;;6.18;;
48040;SDS011;33815;48.386;11.738;2023-05-07T07:53:45;6.95;;;6.25;;
48040;SDS011;33815;48.386;11.738;2023-05-07T07:56:10;6.93;;;6.23;;
48040;SDS011;33815;48.386;11.738;2023-05-07T07:58:36;6.57;;;5.95;;
48040;SDS011;33815;48.386;11.738;2023-05-07T08:01:02;8.38;;;6.75;;
48040;SDS011;33815;48.386;11.738;2023-05-07T08:03:28;6.65;;;5.55;;
48040;SDS011;33815;48.386;11.738;2023-05-07T08:05:56;7.07;;;4.95;;
48040;SDS011;33815;48.386;11.738;2023-05-07T08:08:21;5.00;;;4.47;;
48040;SDS011;33815;48.386;11.738;2023-05-07T08:10:47;5.13;;;4.47;;
48040;SDS011;33815;48.386;11.738;2023-05-07T08:13:14;5.60;;;4.13;;
48040;SDS011;33815;48.386;11.738;2023-05-07T08:15:40;4.82;;;4.28;;
48040;SDS011;33815;48.386;11.738;2023-05-07T08:18:05;4.70;;;4.30;;
48040;SDS011;33815;48.386;11.738;2023-05-07T08:20:30;4.65;;;3.40;;
48040;SDS011;33815;48.386;11.738;2023-05-07T08:22:56;6.72;;;3.70;;
48040;SDS011;33815;48.386;11.738;2023-05-07T08:25:21;4.28;;;3.50;;
48040;SDS011;33815;48.386;11.738;2023-05-07T08:27:46;6.68;;;3.70;;
48040;SDS011;33815;48.386;11.738;2023-05-07T08:30:12;5.63;;;3.57;;
48040;SDS011;33815;48.386;11.738;2023-05-07T08:32:38;4.72;;;3.92;;
48040;SDS011;33815;48.386;11.738;2023-05-07T08:35:03;4.23;;;3.60;;
48040;SDS011;33815;48.386;11.738;2023-05-07T08:37:28;5.10;;;3.70;;
48040;SDS011;33815;48.386;11.738;2023-05-07T08:39:54;3.60;;;3.30;;
48040;SDS011;33815;48.386;11.738;2023-05-07T08:42:19;6.35;;;3.92;;
48040;SDS011;33815;48.386;11.738;2023-05-07T08:44:48;5.38;;;3.17;;
48040;SDS011;33815;48.386;11.738;2023-05-07T08:47:17;3.70;;;3.40;;
48040;SDS011;33815;48.386;11.738;2023-05-07T08:49:45;5.82;;;3.55;;
48040;SDS011;33815;48.386;11.738;2023-05-07T08:52:11;4.07;;;3.30;;
48040;SDS011;33815;48.386;11.738;2023-05-07T08:54:37;2.75;;;2.55;;
48040;SDS011;33815;48.386;11.738;2023-05-07T08:57:03;3.28;;;2.72;;
48040;SDS011;33815;48.386;11.738;2023-05-07T08:59:28;3.40;;;3.05;;
48040;SDS011;33815;48.386;11.738;2023-05-07T09:01:54;5.80;;;3.33;;
48040;SDS011;33815;48.386;11.738;2023-05-07T09:04:19;3.43;;;3.13;;
48040;SDS011;33815;48.386;11.738;2023-05-07T09:06:45;4.47;;;3.42;;
48040;SDS011;33815;48.386;11.738;2023-05-07T09:09:10;3.95;;;3.25;;
48040;SDS011;33815;48.386;11.738;2023-05-07T09:11:39;4.10;;;3.08;;
48040;SDS011;33815;48.386;11.738;2023-05-07T09:14:05;5.35;;;2.70;;
48040;SDS011;33815;48.386;11.738;2023-05-07T09:16:30;4.53;;;2.10;;
48040;SDS011;33815;48.386;11.738;2023-05-07T09:18:57;2.60;;;2.40;;
48040;SDS011;33815;48.386;11.738;2023-05-07T09:21:23;5.68;;;2.53;;
48040;SDS011;33815;48.386;11.738;2023-05-07T09:23:52;3.38;;;2.95;;
48040;SDS011;33815;48.386;11.738;2023-05-07T09:26:20;2.75;;;2.55;;
48040;SDS011;33815;48.386;11.738;2023-05-07T09:28:46;2.92;;;1.70;;
48040;SDS011;33815;48.386;11.738;2023-05-07T09:31:12;2.27;;;1.90;;
48040;SDS011;33815;48.386;11.738;2023-05-07T09:33:37;4.68;;;2.30;;
48040;SDS011;33815;48.386;11.738;2023-05-07T09:36:04;2.78;;;1.42;;
48040;SDS011;33815;48.386;11.738;2023-05-07T09:38:31;4.82;;;2.13;;
48040;SDS011;33815;48.386;11.738;2023-05-07T09:41:10;3.50;;;2.10;;
48040;SDS011;33815;48.386;11.738;2023-05-07T09:43:38;1.88;;;1.63;;
48040;SDS011;33815;48.386;11.738;2023-05-07T09:46:14;2.08;;;1.98;;
48040;SDS011;33815;48.386;11.738;2023-05-07T09:48:42;3.17;;;2.40;;
48040;SDS011;33815;48.386;11.738;2023-05-07T09:54:06;2.75;;;1.75;;
48040;SDS011;33815;48.386;11.738;2023-05-07T09:56:32;2.30;;;2.10;;
48040;SDS011;33815;48.386;11.738;2023-05-07T09:58:59;6.25;;;2.13;;
48040;SDS011;33815;48.386;11.738;2023-05-07T10:01:25;2.42;;;2.22;;
48040;SDS011;33815;48.386;11.738;2023-05-07T10:03:52;3.47;;;2.10;;
48040;SDS011;33815;48.386;11.738;2023-05-07T10:06:21;1.65;;;1.55;;
48040;SDS011;33815;48.386;11.738;2023-05-07T10:08:47;1.33;;;1.20;;
48040;SDS011;33815;48.386;11.738;2023-05-07T10:11:13;2.50;;;1.50;;
48040;SDS011;33815;48.386;11.738;2023-05-07T10:13:39;2.88;;;2.13;;
48040;SDS011;33815;48.386;11.738;2023-05-07T10:16:06;3.75;;;1.63;;
48040;SDS011;33815;48.386;11.738;2023-05-07T10:18:32;3.88;;;2.50;;
48040;SDS011;33815;48.386;11.738;2023-05-07T10:21:02;2.38;;;2.17;;
48040;SDS011;33815;48.386;11.738;2023-05-07T10:23:32;3.05;;;2.00;;
48040;SDS011;33815;48.386;11.738;2023-05-07T10:25:58;3.85;;;2.92;;
48040;SDS011;33815;48.386;11.738;2023-05-07T10:28:26;2.92;;;2.20;;
48040;SDS011;33815;48.386;11.738;2023-05-07T10:33:26;3.05;;;2.00;;
48040;SDS011;33815;48.386;11.738;2023-05-07T10:35:55;1.90;;;1.80;;
48040;SDS011;33815;48.386;11.738;2023-05-07T10:38:24;3.55;;;2.20;;
48040;SDS011;33815;48.386;11.738;2023-05-07T10:40:50;5.05;;;1.80;;
48040;SDS011;33815;48.386;11.738;2023-05-07T10:43:16;2.80;;;2.10;;
48040;SDS011;33815;48.386;11.738;2023-05-07T10:45:41;1.92;;;1.75;;
48040;SDS011;33815;48.386;11.738;2023-05-07T10:50:35;1.15;;;1.05;;
48040;SDS011;33815;48.386;11.738;2023-05-07T10:53:20;2.03;;;1.30;;
48040;SDS011;33815;48.386;11.738;2023-05-07T10:55:52;2.35;;;1.52;;
48040;SDS011;33815;48.386;11.738;2023-05-07T10:58:43;4.03;;;2.22;;
48040;SDS011;33815;48.386;11.738;2023-05-07T11:01:08;5.25;;;1.92;;
48040;SDS011;33815;48.386;11.738;2023-05-07T11:03:36;4.03;;;1.45;;
48040;SDS011;33815;48.386;11.738;2023-05-07T11:06:37;2.10;;;1.90;;
48040;SDS011;33815;48.386;11.738;2023-05-07T11:09:03;3.05;;;2.00;;
48040;SDS011;33815;48.386;11.738;2023-05-07T11:14:10;1.63;;;1.17;;
48040;SDS011;33815;48.386;11.738;2023-05-07T11:16:35;1.70;;;1.35;;
48040;SDS011;33815;48.386;11.738;2023-05-07T11:19:02;2.35;;;1.60;;
48040;SDS011;33815;48.386;11.738;2023-05-07T11:24:07;1.80;;;1.70;;
48040;SDS011;33815;48.386;11.738;2023-05-07T11:26:47;2.40;;;2.15;;
48040;SDS011;33815;48.386;11.738;2023-05-07T11:29:18;1.95;;;1.70;;
48040;SDS011;33815;48.386;11.738;2023-05-07T11:31:48;4.80;;;1.77;;
48040;SDS011;33815;48.386;11.738;2023-05-07T11:34:15;1.80;;;1.70;;
48040;SDS011;33815;48.386;11.738;2023-05-07T11:36:45;2.40;;;1.38;;
48040;SDS011;33815;48.386;11.738;2023-05-07T11:39:25;2.22;;;1.98;;
48040;SDS011;33815;48.386;11.738;2023-05-07T11:41:50;2.00;;;1.38;;
48040;SDS011;33815;48.386;11.738;2023-05-07T11:44:15;3.37;;;1.30;;
48040;SDS011;33815;48.386;11.738;2023-05-07T11:46:43;2.07;;;1.63;;
48040;SDS011;33815;48.386;11.738;2023-05-07T11:49:09;1.60;;;1.23;;
48040;SDS011;33815;48.386;11.738;2023-05-07T11:51:35;2.88;;;1.60;;
48040;SDS011;33815;48.386;11.738;2023-05-07T11:54:00;1.40;;;1.30;;
48040;SDS011;33815;48.386;11.738;2023-05-07T11:56:29;1.92;;;1.60;;
48040;SDS011;33815;48.386;11.738;2023-05-07T11:58:54;2.20;;;1.77;;
48040;SDS011;33815;48.386;11.738;2023-05-07T12:01:19;2.40;;;1.58;;
48040;SDS011;33815;48.386;11.738;2023-05-07T12:03:45;3.30;;;1.30;;
48040;SDS011;33815;48.386;11.738;2023-05-07T12:06:11;2.80;;;1.23;;
48040;SDS011;33815;48.386;11.738;2023-05-07T12:08:38;3.80;;;1.25;;
48040;SDS011;33815;48.386;11.738;2023-05-07T12:11:08;2.10;;;1.15;;
48040;SDS011;33815;48.386;11.738;2023-05-07T12:13:37;1.35;;;1.25;;
48040;SDS011;33815;48.386;11.738;2023-05-07T12:16:02;1.40;;;1.30;;
48040;SDS011;33815;48.386;11.738;2023-05-07T12:18:30;1.85;;;1.20;;
48040;SDS011;33815;48.386;11.738;2023-05-07T12:20:55;1.00;;;0.98;;
48040;SDS011;33815;48.386;11.738;2023-05-07T12:23:21;2.33;;;1.88;;
48040;SDS011;33815;48.386;11.738;2023-05-07T12:25:47;1.75;;;1.20;;
48040;SDS011;33815;48.386;11.738;2023-05-07T12:28:16;1.05;;;0.95;;
48040;SDS011;33815;48.386;11.738;2023-05-07T12:30:42;1.15;;;0.98;;
48040;SDS011;33815;48.386;11.738;2023-05-07T12:33:09;1.25;;;1.15;;
48040;SDS011;33815;48.386;11.738;2023-05-07T12:35:36;1.27;;;1.17;;
48040;SDS011;33815;48.386;11.738;2023-05-07T12:38:09;1.27;;;1.17;;
48040;SDS011;33815;48.386;11.738;2023-05-07T12:40:53;1.15;;;1.00;;
48040;SDS011;33815;48.386;11.738;2023-05-07T12:43:28;1.48;;;1.27;;
48040;SDS011;33815;48.386;11.738;2023-05-07T12:45:55;2.55;;;0.98;;
48040;SDS011;33815;48.386;11.738;2023-05-07T12:48:22;1.23;;;0.93;;
48040;SDS011;33815;48.386;11.738;2023-05-07T12:50:51;1.35;;;1.25;;
48040;SDS011;33815;48.386;11.738;2023-05-07T12:53:19;6.07;;;1.27;;
48040;SDS011;33815;48.386;11.738;2023-05-07T12:55:46;1.42;;;1.20;;
48040;SDS011;33815;48.386;11.738;2023-05-07T12:58:48;1.40;;;1.30;;
48040;SDS011;33815;48.386;11.738;2023-05-07T13:01:06;2.17;;;1.05;;
48040;SDS011;33815;48.386;11.738;2023-05-07T13:03:35;1.00;;;1.00;;
48040;SDS011;33815;48.386;11.738;2023-05-07T13:06:06;2.25;;;1.00;;
48040;SDS011;33815;48.386;11.738;2023-05-07T13:08:35;2.67;;;0.90;;
48040;SDS011;33815;48.386;11.738;2023-05-07T13:11:06;1.40;;;1.20;;
48040;SDS011;33815;48.386;11.738;2023-05-07T13:13:33;1.98;;;0.80;;
48040;SDS011;33815;48.386;11.738;2023-05-07T13:15:59;1.98;;;1.33;;
48040;SDS011;33815;48.386;11.738;2023-05-07T13:18:26;1.92;;;1.33;;
48040;SDS011;33815;48.386;11.738;2023-05-07T13:20:52;2.28;;;1.08;;
48040;SDS011;33815;48.386;11.738;2023-05-07T13:23:18;0.90;;;0.90;;
48040;SDS011;33815;48.386;11.738;2023-05-07T13:25:43;1.30;;;1.10;;
48040;SDS011;33815;48.386;11.738;2023-05-07T13:28:08;1.60;;;0.83;;
48040;SDS011;33815;48.386;11.738;2023-05-07T13:30:34;2.45;;;1.00;;
48040;SDS011;33815;48.386;11.738;2023-05-07T13:32:59;1.15;;;1.00;;
48040;SDS011;33815;48.386;11.738;2023-05-07T13:35:25;2.17;;;1.52;;
48040;SDS011;33815;48.386;11.738;2023-05-07T13:37:50;0.70;;;0.70;;
48040;SDS011;33815;48.386;11.738;2023-05-07T13:40:17;0.82;;;0.82;;
48040;SDS011;33815;48.386;11.738;2023-05-07T13:42:43;2.30;;;1.42;;
48040;SDS011;33815;48.386;11.738;2023-05-07T13:45:09;1.00;;;1.00;;
48040;SDS011;33815;48.386;11.738;2023-05-07T13:47:34;1.30;;;1.20;;
48040;SDS011;33815;48.386;11.738;2023-05-07T13:49:59;1.55;;;1.10;;
48040;SDS011;33815;48.386;11.738;2023-05-07T13:52:25;1.48;;;0.88;;
48040;SDS011;33815;48.386;11.738;2023-05-07T13:54:50;0.90;;;0.90;;
48040;SDS011;33815;48.386;11.738;2023-05-07T13:57:17;2.67;;;0.80;;
48040;SDS011;33815;48.386;11.738;2023-05-07T13:59:42;2.22;;;0.93;;
48040;SDS011;33815;48.386;11.738;2023-05-07T14:02:07;1.30;;;0.73;;
48040;SDS011;33815;48.386;11.738;2023-05-07T14:04:33;1.13;;;1.05;;
48040;SDS011;33815;48.386;11.738;2023-05-07T14:06:59;1.45;;;0.93;;
48040;SDS011;33815;48.386;11.738;2023-05-07T14:09:24;1.20;;;1.10;;
48040;SDS011;33815;48.386;11.738;2023-05-07T14:11:50;1.50;;;0.90;;
48040;SDS011;33815;48.386;11.738;2023-05-07T14:14:17;1.10;;;1.10;;
48040;SDS011;33815;48.386;11.738;2023-05-07T14:16:42;0.80;;;0.80;;
48040;SDS011;33815;48.386;11.738;2023-05-07T14:19:07;1.10;;;1.00;;
48040;SDS011;33815;48.386;11.738;2023-05-07T14:21:33;0.80;;;0.80;;
48040;SDS011;33815;48.386;11.738;2023-05-07T14:23:58;1.10;;;1.00;;
48040;SDS011;33815;48.386;11.738;2023-05-07T14:26:24;1.20;;;0.90;;
48040;SDS011;33815;48.386;11.738;2023-05-07T14:28:51;1.08;;;0.80;;
48040;SDS011;33815;48.386;11.738;2023-05-07T14:31:17;2.60;;;1.05;;
48040;SDS011;33815;48.386;11.738;2023-05-07T14:33:42;0.70;;;0.70;;
48040;SDS011;33815;48.386;11.738;2023-05-07T14:36:07;0.87;;;0.80;;
48040;SDS011;33815;48.386;11.738;2023-05-07T14:38:33;0.95;;;0.75;;
48040;SDS011;33815;48.386;11.738;2023-05-07T14:40:58;0.70;;;0.70;;